createdAt,value
2022-12-18T00:03:27.468Z,100880.98
2022-12-18T00:13:33.295Z,100886.04
2022-12-18T00:23:41.025Z,100885.66
2022-12-18T00:33:47.559Z,100908.81
2022-12-18T00:43:55.488Z,100919.12
2022-12-18T00:53:59.709Z,100926.36
2022-12-18T01:04:06.591Z,100939.77
2022-12-18T01:14:12.440Z,100939.64
2022-12-18T01:24:18.188Z,100950.14
2022-12-18T01:34:22.295Z,100963.40
2022-12-18T01:44:59.300Z,100976.17
2022-12-18T01:55:08.165Z,100987.17
2022-12-18T02:05:17.041Z,100999.85
2022-12-18T02:15:28.414Z,101014.36
2022-12-18T02:25:47.706Z,101025.31
2022-12-18T02:35:56.768Z,101033.54
2022-12-18T02:46:17.660Z,101047.54
2022-12-18T02:56:28.338Z,101056.89
2022-12-18T03:06:39.296Z,101068.41
2022-12-18T03:16:46.862Z,101073.63
2022-12-18T03:26:55.703Z,101085.75
2022-12-18T03:37:01.819Z,101104.30
2022-12-18T03:47:12.342Z,101122.23
2022-12-18T03:57:21.824Z,101131.51
2022-12-18T04:07:27.803Z,101134.81
2022-12-18T04:17:33.389Z,101153.14
2022-12-18T04:27:37.468Z,101157.86
2022-12-18T04:37:43.075Z,101163.79
2022-12-18T04:47:48.672Z,101184.92
2022-12-18T04:57:52.744Z,101202.64
2022-12-18T05:07:58.399Z,101209.83
2022-12-18T05:18:05.222Z,101213.59
2022-12-18T05:28:10.828Z,101225.12
2022-12-18T05:38:16.676Z,101231.08
2022-12-18T05:48:22.698Z,101232.67
2022-12-18T05:58:28.273Z,101241.19
2022-12-18T06:08:33.888Z,101249.94
2022-12-18T06:18:39.771Z,101262.70
2022-12-18T06:28:45.556Z,101282.34
2022-12-18T06:38:51.659Z,101300.73
2022-12-18T06:48:57.295Z,101319.00
2022-12-18T06:59:02.927Z,101330.55
2022-12-18T07:09:08.659Z,101359.60
2022-12-18T07:19:14.366Z,101376.42
2022-12-18T07:29:20.023Z,101391.81
2022-12-18T07:39:25.610Z,101405.27
2022-12-18T07:49:29.757Z,101403.09
2022-12-18T07:59:35.443Z,101405.73
2022-12-18T08:09:41.026Z,101412.90
2022-12-18T08:19:46.737Z,101430.45
2022-12-18T08:29:50.944Z,101446.76
2022-12-18T08:39:56.970Z,101453.33
2022-12-18T08:50:02.728Z,101454.39
2022-12-18T09:00:07.643Z,101468.02
2022-12-18T09:10:13.431Z,101477.18
2022-12-18T09:20:17.566Z,101491.73
2022-12-18T09:30:23.896Z,101493.83
2022-12-18T09:40:38.232Z,101503.90
2022-12-18T09:50:44.985Z,101505.52
2022-12-18T10:00:53.339Z,101504.02
2022-12-18T10:11:04.323Z,101502.15
2022-12-18T10:21:16.269Z,101501.11
2022-12-18T10:31:24.722Z,101496.03
2022-12-18T10:41:31.971Z,101503.65
2022-12-18T10:51:39.763Z,101512.38
2022-12-18T11:01:55.894Z,101514.58
2022-12-18T11:12:03.816Z,101516.40
2022-12-18T11:22:25.366Z,101518.13
2022-12-18T11:32:41.348Z,101513.00
2022-12-18T11:42:52.207Z,101512.04
2022-12-18T11:53:02.783Z,101510.39
2022-12-18T12:03:49.789Z,101503.27
2022-12-18T12:14:08.981Z,101524.55
2022-12-18T12:24:32.880Z,101527.42
2022-12-18T12:34:59.513Z,101535.27
2022-12-18T12:45:15.832Z,101552.76
2022-12-18T12:55:24.442Z,101568.41
2022-12-18T13:05:36.665Z,101569.60
2022-12-18T13:15:46.193Z,101571.88
2022-12-18T13:25:53.143Z,101570.82
2022-12-18T13:36:10.874Z,101580.83
2022-12-18T13:46:26.034Z,101590.05
2022-12-18T13:56:33.973Z,101596.08
2022-12-18T14:06:39.969Z,101604.95
2022-12-18T14:16:47.774Z,101608.44
2022-12-18T14:26:54.719Z,101613.81
2022-12-18T14:37:01.168Z,101610.95
2022-12-18T14:47:07.308Z,101614.47
2022-12-18T14:57:23.560Z,101617.20
2022-12-18T15:07:29.390Z,101632.36
2022-12-18T15:17:35.311Z,101638.04
2022-12-18T15:27:41.082Z,101633.27
2022-12-18T15:37:47.298Z,101621.48
2022-12-18T15:47:53.305Z,101648.27
2022-12-18T15:58:00.792Z,101654.56
2022-12-18T16:08:06.900Z,101667.70
2022-12-18T16:18:12.613Z,101671.98
2022-12-18T16:28:18.416Z,101669.96
2022-12-18T16:38:24.228Z,101663.38
2022-12-18T16:48:30.050Z,101673.83
2022-12-18T16:58:35.990Z,101680.39
2022-12-18T17:08:41.674Z,101684.50
2022-12-18T17:18:47.762Z,101662.09
2022-12-18T17:28:53.475Z,101663.54
2022-12-18T17:39:01.063Z,101655.20
2022-12-18T17:49:07.086Z,101647.14
2022-12-18T17:59:13.779Z,101652.17
2022-12-18T18:09:19.596Z,101666.45
2022-12-18T18:19:26.728Z,101661.54
2022-12-18T18:29:32.618Z,101665.43
2022-12-18T18:39:39.153Z,101652.75
2022-12-18T18:49:44.831Z,101660.83
2022-12-18T18:59:50.651Z,101676.17
2022-12-18T19:09:56.487Z,101676.36
2022-12-18T19:20:02.293Z,101679.46
2022-12-18T19:30:10.057Z,101689.43
2022-12-18T19:40:15.914Z,101698.82
2022-12-18T19:50:22.054Z,101702.84
2022-12-18T20:00:27.730Z,101714.83
2022-12-18T20:10:33.554Z,101708.32
2022-12-18T20:20:39.345Z,101705.41
2022-12-18T20:30:46.124Z,101677.05
2022-12-18T20:40:51.925Z,101652.79
2022-12-18T20:51:04.067Z,101645.79
2022-12-18T21:01:12.751Z,101637.46
2022-12-18T21:11:44.002Z,101657.76
2022-12-18T21:21:50.030Z,101660.90
2022-12-18T21:31:56.225Z,101657.06
2022-12-18T21:42:19.590Z,101646.17
2022-12-18T21:52:31.979Z,101642.93
2022-12-18T22:02:38.290Z,101635.20
2022-12-18T22:12:45.849Z,101630.56
2022-12-18T22:22:52.585Z,101635.50
2022-12-18T22:32:59.867Z,101632.60
2022-12-18T22:43:06.919Z,101620.66
2022-12-18T22:53:12.708Z,101603.56
2022-12-18T23:03:18.401Z,101605.64
2022-12-18T23:13:24.156Z,101603.52
2022-12-18T23:23:29.795Z,101572.77
2022-12-18T23:33:35.957Z,101566.27
2022-12-18T23:43:41.931Z,101564.99
2022-12-18T23:53:49.836Z,101568.30
